sensor_id;sensor_type;location;lat;lon;timestamp;temperature;humidity
41471;DHT22;27211;51.220;5.308;2022-08-01T00:00:18;21.20;99.90
41471;DHT22;27211;51.220;5.308;2022-08-01T00:02:44;21.20;99.90
41471;DHT22;27211;51.220;5.308;2022-08-01T00:05:11;20.90;99.90
41471;DHT22;27211;51.220;5.308;2022-08-01T00:07:37;21.00;99.90
41471;DHT22;27211;51.220;5.308;2022-08-01T00:10:08;21.00;99.90
41471;DHT22;27211;51.220;5.308;2022-08-01T00:12:34;21.10;99.90
41471;DHT22;27211;51.220;5.308;2022-08-01T00:15:00;21.20;99.90
41471;DHT22;27211;51.220;5.308;2022-08-01T00:17:26;21.00;99.90
41471;DHT22;27211;51.220;5.308;2022-08-01T00:19:52;20.90;99.90
41471;DHT22;27211;51.220;5.308;2022-08-01T00:22:17;21.10;99.90
41471;DHT22;27211;51.220;5.308;2022-08-01T00:24:43;21.00;99.90
41471;DHT22;27211;51.220;5.308;2022-08-01T00:27:09;21.20;99.90
41471;DHT22;27211;51.220;5.308;2022-08-01T00:29:35;21.30;99.90
41471;DHT22;27211;51.220;5.308;2022-08-01T00:32:01;21.10;99.90
41471;DHT22;27211;51.220;5.308;2022-08-01T00:34:27;21.10;99.90
41471;DHT22;27211;51.220;5.308;2022-08-01T00:36:53;21.00;99.90
41471;DHT22;27211;51.220;5.308;2022-08-01T00:39:19;21.10;99.90
41471;DHT22;27211;51.220;5.308;2022-08-01T00:41:44;21.30;99.90
41471;DHT22;27211;51.220;5.308;2022-08-01T00:44:11;21.30;99.90
41471;DHT22;27211;51.220;5.308;2022-08-01T00:46:37;21.20;99.90
41471;DHT22;27211;51.220;5.308;2022-08-01T00:49:03;21.30;99.90
41471;DHT22;27211;51.220;5.308;2022-08-01T00:51:30;21.30;99.90
41471;DHT22;27211;51.220;5.308;2022-08-01T00:53:56;21.30;99.90
41471;DHT22;27211;51.220;5.308;2022-08-01T00:56:25;21.30;99.90
41471;DHT22;27211;51.220;5.308;2022-08-01T00:58:52;21.40;99.90
41471;DHT22;27211;51.220;5.308;2022-08-01T01:01:18;21.40;99.90
41471;DHT22;27211;51.220;5.308;2022-08-01T01:03:47;21.40;99.90
41471;DHT22;27211;51.220;5.308;2022-08-01T01:12:24;21.30;99.90
41471;DHT22;27211;51.220;5.308;2022-08-01T01:17:35;21.20;99.90
41471;DHT22;27211;51.220;5.308;2022-08-01T01:20:03;21.00;99.90
41471;DHT22;27211;51.220;5.308;2022-08-01T01:22:53;21.10;99.90
41471;DHT22;27211;51.220;5.308;2022-08-01T01:28:15;20.90;99.90
41471;DHT22;27211;51.220;5.308;2022-08-01T01:30:45;20.70;99.90
41471;DHT22;27211;51.220;5.308;2022-08-01T01:33:13;20.70;99.90
41471;DHT22;27211;51.220;5.308;2022-08-01T01:35:44;20.70;99.90
41471;DHT22;27211;51.220;5.308;2022-08-01T01:38:23;20.70;99.90
41471;DHT22;27211;51.220;5.308;2022-08-01T01:40:51;20.90;99.90
41471;DHT22;27211;51.220;5.308;2022-08-01T01:43:18;20.80;99.90
41471;DHT22;27211;51.220;5.308;2022-08-01T01:45:47;20.90;99.90
41471;DHT22;27211;51.220;5.308;2022-08-01T01:48:15;21.10;99.90
41471;DHT22;27211;51.220;5.308;2022-08-01T01:50:46;21.10;99.90
41471;DHT22;27211;51.220;5.308;2022-08-01T01:53:15;21.00;99.90
41471;DHT22;27211;51.220;5.308;2022-08-01T01:55:44;21.00;99.90
41471;DHT22;27211;51.220;5.308;2022-08-01T01:58:13;21.00;99.90
41471;DHT22;27211;51.220;5.308;2022-08-01T02:00:42;21.00;99.90
41471;DHT22;27211;51.220;5.308;2022-08-01T02:03:12;20.90;99.90
41471;DHT22;27211;51.220;5.308;2022-08-01T02:05:38;21.00;99.90
41471;DHT22;27211;51.220;5.308;2022-08-01T02:08:06;21.10;99.90
41471;DHT22;27211;51.220;5.308;2022-08-01T02:10:35;21.10;99.90
41471;DHT22;27211;51.220;5.308;2022-08-01T02:13:04;21.00;99.90
41471;DHT22;27211;51.220;5.308;2022-08-01T02:15:33;21.00;99.90
41471;DHT22;27211;51.220;5.308;2022-08-01T02:18:02;21.00;99.90
41471;DHT22;27211;51.220;5.308;2022-08-01T02:20:29;21.20;99.90
41471;DHT22;27211;51.220;5.308;2022-08-01T02:23:01;21.00;99.90
41471;DHT22;27211;51.220;5.308;2022-08-01T02:25:47;21.00;99.90
41471;DHT22;27211;51.220;5.308;2022-08-01T02:28:27;21.10;99.90
41471;DHT22;27211;51.220;5.308;2022-08-01T02:30:59;21.00;99.90
41471;DHT22;27211;51.220;5.308;2022-08-01T02:33:38;21.10;99.90
41471;DHT22;27211;51.220;5.308;2022-08-01T02:36:06;21.20;99.90
41471;DHT22;27211;51.220;5.308;2022-08-01T02:38:36;21.10;99.90
41471;DHT22;27211;51.220;5.308;2022-08-01T02:41:08;20.90;99.90
41471;DHT22;27211;51.220;5.308;2022-08-01T02:43:36;20.80;99.90
41471;DHT22;27211;51.220;5.308;2022-08-01T02:46:06;20.70;99.90
41471;DHT22;27211;51.220;5.308;2022-08-01T02:48:35;20.60;99.90
41471;DHT22;27211;51.220;5.308;2022-08-01T02:51:03;20.60;99.90
41471;DHT22;27211;51.220;5.308;2022-08-01T02:53:33;20.80;99.90
41471;DHT22;27211;51.220;5.308;2022-08-01T02:56:04;20.70;99.90
41471;DHT22;27211;51.220;5.308;2022-08-01T02:58:30;20.60;99.90
41471;DHT22;27211;51.220;5.308;2022-08-01T03:00:57;20.70;99.90
41471;DHT22;27211;51.220;5.308;2022-08-01T03:03:24;20.60;99.90
41471;DHT22;27211;51.220;5.308;2022-08-01T03:05:50;20.70;99.90
41471;DHT22;27211;51.220;5.308;2022-08-01T03:08:17;20.60;99.90
41471;DHT22;27211;51.220;5.308;2022-08-01T03:10:45;20.70;99.90
41471;DHT22;27211;51.220;5.308;2022-08-01T03:13:13;20.60;99.90
41471;DHT22;27211;51.220;5.308;2022-08-01T03:15:42;20.50;99.90
41471;DHT22;27211;51.220;5.308;2022-08-01T03:18:10;20.50;99.90
41471;DHT22;27211;51.220;5.308;2022-08-01T03:20:37;20.50;99.90
41471;DHT22;27211;51.220;5.308;2022-08-01T03:23:08;20.60;99.90
41471;DHT22;27211;51.220;5.308;2022-08-01T03:25:37;20.70;99.90
41471;DHT22;27211;51.220;5.308;2022-08-01T03:28:06;20.70;99.90
41471;DHT22;27211;51.220;5.308;2022-08-01T03:30:33;20.70;99.90
41471;DHT22;27211;51.220;5.308;2022-08-01T03:33:02;20.70;99.90
41471;DHT22;27211;51.220;5.308;2022-08-01T03:35:53;20.80;99.90
41471;DHT22;27211;51.220;5.308;2022-08-01T03:38:25;20.80;99.90
41471;DHT22;27211;51.220;5.308;2022-08-01T03:40:59;20.60;99.90
41471;DHT22;27211;51.220;5.308;2022-08-01T03:43:37;20.50;99.90
41471;DHT22;27211;51.220;5.308;2022-08-01T03:46:10;20.50;99.90
41471;DHT22;27211;51.220;5.308;2022-08-01T03:48:40;20.50;99.90
41471;DHT22;27211;51.220;5.308;2022-08-01T03:51:08;20.60;99.90
41471;DHT22;27211;51.220;5.308;2022-08-01T03:53:36;20.50;99.90
41471;DHT22;27211;51.220;5.308;2022-08-01T03:56:04;20.50;99.90
41471;DHT22;27211;51.220;5.308;2022-08-01T03:58:34;20.70;99.90
41471;DHT22;27211;51.220;5.308;2022-08-01T04:01:01;20.80;99.90
41471;DHT22;27211;51.220;5.308;2022-08-01T04:03:27;20.80;99.90
41471;DHT22;27211;51.220;5.308;2022-08-01T04:05:53;20.80;99.90
41471;DHT22;27211;51.220;5.308;2022-08-01T04:08:19;20.80;99.90
41471;DHT22;27211;51.220;5.308;2022-08-01T04:10:45;20.60;99.90
41471;DHT22;27211;51.220;5.308;2022-08-01T04:13:10;20.60;99.90
41471;DHT22;27211;51.220;5.308;2022-08-01T04:15:36;20.70;99.90
41471;DHT22;27211;51.220;5.308;2022-08-01T04:18:03;20.60;99.90
41471;DHT22;27211;51.220;5.308;2022-08-01T04:20:28;20.50;99.90
41471;DHT22;27211;51.220;5.308;2022-08-01T04:22:55;20.40;99.90
41471;DHT22;27211;51.220;5.308;2022-08-01T04:25:26;20.30;99.90
41471;DHT22;27211;51.220;5.308;2022-08-01T04:27:54;20.30;99.90
41471;DHT22;27211;51.220;5.308;2022-08-01T04:30:26;20.40;99.90
41471;DHT22;27211;51.220;5.308;2022-08-01T04:32:55;20.40;99.90
41471;DHT22;27211;51.220;5.308;2022-08-01T04:35:24;20.50;99.90
41471;DHT22;27211;51.220;5.308;2022-08-01T04:37:52;20.60;99.90
41471;DHT22;27211;51.220;5.308;2022-08-01T04:40:19;20.70;99.90
41471;DHT22;27211;51.220;5.308;2022-08-01T04:42:48;20.70;99.90
41471;DHT22;27211;51.220;5.308;2022-08-01T04:45:15;20.70;99.90
41471;DHT22;27211;51.220;5.308;2022-08-01T04:47:42;20.70;99.90
41471;DHT22;27211;51.220;5.308;2022-08-01T04:50:09;20.60;99.90
41471;DHT22;27211;51.220;5.308;2022-08-01T04:52:36;20.70;99.90
41471;DHT22;27211;51.220;5.308;2022-08-01T04:55:04;20.60;99.90
41471;DHT22;27211;51.220;5.308;2022-08-01T04:57:36;20.60;99.90
41471;DHT22;27211;51.220;5.308;2022-08-01T05:00:08;20.50;99.90
41471;DHT22;27211;51.220;5.308;2022-08-01T05:02:34;20.60;99.90
41471;DHT22;27211;51.220;5.308;2022-08-01T05:05:00;20.60;99.90
41471;DHT22;27211;51.220;5.308;2022-08-01T05:07:26;20.70;99.90
41471;DHT22;27211;51.220;5.308;2022-08-01T05:09:52;20.80;99.90
41471;DHT22;27211;51.220;5.308;2022-08-01T05:12:18;20.80;99.90
41471;DHT22;27211;51.220;5.308;2022-08-01T05:14:44;20.80;99.90
41471;DHT22;27211;51.220;5.308;2022-08-01T05:17:11;20.80;99.90
41471;DHT22;27211;51.220;5.308;2022-08-01T05:19:38;20.70;99.90
41471;DHT22;27211;51.220;5.308;2022-08-01T05:22:07;20.80;99.90
41471;DHT22;27211;51.220;5.308;2022-08-01T05:24:34;20.80;99.90
41471;DHT22;27211;51.220;5.308;2022-08-01T05:27:01;20.70;99.90
41471;DHT22;27211;51.220;5.308;2022-08-01T05:29:27;20.80;99.90
41471;DHT22;27211;51.220;5.308;2022-08-01T05:31:54;20.70;99.90
41471;DHT22;27211;51.220;5.308;2022-08-01T05:34:20;20.80;99.90
41471;DHT22;27211;51.220;5.308;2022-08-01T05:36:47;20.70;99.90
41471;DHT22;27211;51.220;5.308;2022-08-01T05:39:13;20.70;99.90
41471;DHT22;27211;51.220;5.308;2022-08-01T05:41:40;21.10;99.90
41471;DHT22;27211;51.220;5.308;2022-08-01T05:44:06;21.30;99.90
41471;DHT22;27211;51.220;5.308;2022-08-01T05:46:33;21.30;99.90
41471;DHT22;27211;51.220;5.308;2022-08-01T05:49:01;21.60;99.90
41471;DHT22;27211;51.220;5.308;2022-08-01T05:51:27;21.90;99.90
41471;DHT22;27211;51.220;5.308;2022-08-01T05:53:53;22.00;99.90
41471;DHT22;27211;51.220;5.308;2022-08-01T05:56:20;22.00;99.90
41471;DHT22;27211;51.220;5.308;2022-08-01T05:58:47;21.80;99.90
41471;DHT22;27211;51.220;5.308;2022-08-01T06:01:13;21.90;99.90
41471;DHT22;27211;51.220;5.308;2022-08-01T06:03:39;21.90;99.90
41471;DHT22;27211;51.220;5.308;2022-08-01T06:06:05;21.80;99.90
41471;DHT22;27211;51.220;5.308;2022-08-01T06:08:31;21.60;99.90
41471;DHT22;27211;51.220;5.308;2022-08-01T06:10:57;21.50;99.90
41471;DHT22;27211;51.220;5.308;2022-08-01T06:13:23;21.80;99.90
41471;DHT22;27211;51.220;5.308;2022-08-01T06:15:49;22.00;99.90
41471;DHT22;27211;51.220;5.308;2022-08-01T06:18:15;22.10;99.90
41471;DHT22;27211;51.220;5.308;2022-08-01T06:20:41;22.20;99.90
41471;DHT22;27211;51.220;5.308;2022-08-01T06:23:08;22.20;99.90
41471;DHT22;27211;51.220;5.308;2022-08-01T06:25:33;22.10;99.90
41471;DHT22;27211;51.220;5.308;2022-08-01T06:28:00;22.20;99.90
41471;DHT22;27211;51.220;5.308;2022-08-01T06:30:26;22.40;99.90
41471;DHT22;27211;51.220;5.308;2022-08-01T06:32:52;22.50;99.90
41471;DHT22;27211;51.220;5.308;2022-08-01T06:35:21;22.50;99.90
41471;DHT22;27211;51.220;5.308;2022-08-01T06:37:47;22.60;99.90
41471;DHT22;27211;51.220;5.308;2022-08-01T06:40:13;22.70;99.90
41471;DHT22;27211;51.220;5.308;2022-08-01T06:42:39;22.90;99.90
41471;DHT22;27211;51.220;5.308;2022-08-01T06:45:07;23.00;99.90
41471;DHT22;27211;51.220;5.308;2022-08-01T06:47:33;22.90;99.90
41471;DHT22;27211;51.220;5.308;2022-08-01T06:49:59;22.60;99.90
41471;DHT22;27211;51.220;5.308;2022-08-01T06:52:25;22.80;99.90
41471;DHT22;27211;51.220;5.308;2022-08-01T06:54:50;22.90;99.90
41471;DHT22;27211;51.220;5.308;2022-08-01T06:57:17;23.10;99.90
41471;DHT22;27211;51.220;5.308;2022-08-01T06:59:43;23.30;99.90
41471;DHT22;27211;51.220;5.308;2022-08-01T07:02:08;23.50;99.90
41471;DHT22;27211;51.220;5.308;2022-08-01T07:04:34;23.90;99.90
41471;DHT22;27211;51.220;5.308;2022-08-01T07:07:01;24.10;99.90
41471;DHT22;27211;51.220;5.308;2022-08-01T07:09:27;24.40;99.90
41471;DHT22;27211;51.220;5.308;2022-08-01T07:11:54;24.40;99.90
41471;DHT22;27211;51.220;5.308;2022-08-01T07:14:21;24.40;99.90
41471;DHT22;27211;51.220;5.308;2022-08-01T07:16:47;24.70;99.90
41471;DHT22;27211;51.220;5.308;2022-08-01T07:19:13;24.70;99.90
41471;DHT22;27211;51.220;5.308;2022-08-01T07:21:40;25.00;99.90
41471;DHT22;27211;51.220;5.308;2022-08-01T07:24:06;25.10;99.90
41471;DHT22;27211;51.220;5.308;2022-08-01T07:26:32;25.00;99.90
41471;DHT22;27211;51.220;5.308;2022-08-01T07:28:58;24.80;99.90
41471;DHT22;27211;51.220;5.308;2022-08-01T07:31:24;24.60;99.90
41471;DHT22;27211;51.220;5.308;2022-08-01T07:33:52;24.80;99.90
41471;DHT22;27211;51.220;5.308;2022-08-01T07:36:18;24.90;99.90
41471;DHT22;27211;51.220;5.308;2022-08-01T07:38:45;25.10;99.90
41471;DHT22;27211;51.220;5.308;2022-08-01T07:41:11;25.60;99.90
41471;DHT22;27211;51.220;5.308;2022-08-01T07:43:37;26.70;99.90
41471;DHT22;27211;51.220;5.308;2022-08-01T07:46:04;27.70;99.90
41471;DHT22;27211;51.220;5.308;2022-08-01T07:48:30;28.10;99.90
41471;DHT22;27211;51.220;5.308;2022-08-01T07:50:56;28.40;99.90
41471;DHT22;27211;51.220;5.308;2022-08-01T07:53:22;28.20;99.90
41471;DHT22;27211;51.220;5.308;2022-08-01T07:55:49;27.80;99.90
41471;DHT22;27211;51.220;5.308;2022-08-01T07:58:16;28.00;99.90
41471;DHT22;27211;51.220;5.308;2022-08-01T08:00:42;28.20;99.90
41471;DHT22;27211;51.220;5.308;2022-08-01T08:03:08;28.50;99.90
41471;DHT22;27211;51.220;5.308;2022-08-01T08:05:33;28.80;99.90
41471;DHT22;27211;51.220;5.308;2022-08-01T08:08:05;29.50;99.90
41471;DHT22;27211;51.220;5.308;2022-08-01T08:10:31;30.30;99.90
41471;DHT22;27211;51.220;5.308;2022-08-01T08:12:57;30.10;99.90
41471;DHT22;27211;51.220;5.308;2022-08-01T08:15:23;30.10;99.90
41471;DHT22;27211;51.220;5.308;2022-08-01T08:17:49;30.10;99.40
41471;DHT22;27211;51.220;5.308;2022-08-01T08:20:15;29.80;99.00
41471;DHT22;27211;51.220;5.308;2022-08-01T08:22:41;30.10;98.90
41471;DHT22;27211;51.220;5.308;2022-08-01T08:25:07;30.50;98.20
41471;DHT22;27211;51.220;5.308;2022-08-01T08:27:33;31.40;96.70
41471;DHT22;27211;51.220;5.308;2022-08-01T08:29:59;31.20;96.10
41471;DHT22;27211;51.220;5.308;2022-08-01T08:32:25;31.00;95.30
41471;DHT22;27211;51.220;5.308;2022-08-01T08:34:50;31.00;94.40
41471;DHT22;27211;51.220;5.308;2022-08-01T08:37:17;31.70;94.60
41471;DHT22;27211;51.220;5.308;2022-08-01T08:39:43;32.40;94.10
41471;DHT22;27211;51.220;5.308;2022-08-01T08:42:11;32.20;94.30
41471;DHT22;27211;51.220;5.308;2022-08-01T08:44:37;31.30;94.40
41471;DHT22;27211;51.220;5.308;2022-08-01T08:47:05;30.60;95.20
41471;DHT22;27211;51.220;5.308;2022-08-01T08:49:32;31.10;94.80
41471;DHT22;27211;51.220;5.308;2022-08-01T08:52:00;31.50;94.50
41471;DHT22;27211;51.220;5.308;2022-08-01T08:54:27;31.80;92.90
41471;DHT22;27211;51.220;5.308;2022-08-01T08:56:55;32.00;92.50
41471;DHT22;27211;51.220;5.308;2022-08-01T08:59:21;32.20;91.70
41471;DHT22;27211;51.220;5.308;2022-08-01T09:01:47;32.10;91.40
41471;DHT22;27211;51.220;5.308;2022-08-01T09:04:13;32.20;91.00
41471;DHT22;27211;51.220;5.308;2022-08-01T09:06:40;32.10;91.20
41471;DHT22;27211;51.220;5.308;2022-08-01T09:09:07;31.90;91.60
41471;DHT22;27211;51.220;5.308;2022-08-01T09:11:33;31.40;92.70
41471;DHT22;27211;51.220;5.308;2022-08-01T09:16:36;30.00;93.50
41471;DHT22;27211;51.220;5.308;2022-08-01T09:19:14;29.80;94.50
41471;DHT22;27211;51.220;5.308;2022-08-01T09:21:56;30.80;93.50
41471;DHT22;27211;51.220;5.308;2022-08-01T09:24:23;31.40;92.60
41471;DHT22;27211;51.220;5.308;2022-08-01T09:26:49;31.90;92.30
41471;DHT22;27211;51.220;5.308;2022-08-01T09:29:23;32.40;90.70
41471;DHT22;27211;51.220;5.308;2022-08-01T09:31:49;32.80;87.50
41471;DHT22;27211;51.220;5.308;2022-08-01T09:34:22;33.50;85.90
41471;DHT22;27211;51.220;5.308;2022-08-01T09:36:56;34.00;84.50
41471;DHT22;27211;51.220;5.308;2022-08-01T09:39:27;34.70;81.30
41471;DHT22;27211;51.220;5.308;2022-08-01T09:41:54;34.80;80.00
41471;DHT22;27211;51.220;5.308;2022-08-01T09:44:40;34.90;79.10
41471;DHT22;27211;51.220;5.308;2022-08-01T09:47:06;35.40;77.60
41471;DHT22;27211;51.220;5.308;2022-08-01T09:49:36;35.10;77.10
41471;DHT22;27211;51.220;5.308;2022-08-01T09:52:15;35.60;76.50
41471;DHT22;27211;51.220;5.308;2022-08-01T09:54:43;35.80;75.80
41471;DHT22;27211;51.220;5.308;2022-08-01T09:57:17;35.50;76.40
41471;DHT22;27211;51.220;5.308;2022-08-01T09:59:47;35.40;75.60
41471;DHT22;27211;51.220;5.308;2022-08-01T10:02:34;35.50;75.50
41471;DHT22;27211;51.220;5.308;2022-08-01T10:05:07;35.30;72.20
41471;DHT22;27211;51.220;5.308;2022-08-01T10:07:34;35.60;73.00
41471;DHT22;27211;51.220;5.308;2022-08-01T10:10:11;36.70;71.50
41471;DHT22;27211;51.220;5.308;2022-08-01T10:12:37;35.60;71.80
41471;DHT22;27211;51.220;5.308;2022-08-01T10:15:05;34.90;73.10
41471;DHT22;27211;51.220;5.308;2022-08-01T10:17:32;33.70;75.30
41471;DHT22;27211;51.220;5.308;2022-08-01T10:20:00;34.70;75.10
41471;DHT22;27211;51.220;5.308;2022-08-01T10:22:27;34.80;74.10
41471;DHT22;27211;51.220;5.308;2022-08-01T10:24:56;34.70;72.70
41471;DHT22;27211;51.220;5.308;2022-08-01T10:27:25;34.80;72.40
41471;DHT22;27211;51.220;5.308;2022-08-01T10:29:59;35.60;71.60
41471;DHT22;27211;51.220;5.308;2022-08-01T10:32:34;36.60;69.80
41471;DHT22;27211;51.220;5.308;2022-08-01T10:35:07;36.80;67.70
41471;DHT22;27211;51.220;5.308;2022-08-01T10:37:35;37.20;66.00
41471;DHT22;27211;51.220;5.308;2022-08-01T10:40:02;37.40;66.30
41471;DHT22;27211;51.220;5.308;2022-08-01T10:42:30;38.00;66.30
41471;DHT22;27211;51.220;5.308;2022-08-01T10:44:57;38.60;65.50
41471;DHT22;27211;51.220;5.308;2022-08-01T10:47:44;38.10;64.00
41471;DHT22;27211;51.220;5.308;2022-08-01T10:50:33;37.50;64.80
41471;DHT22;27211;51.220;5.308;2022-08-01T10:53:11;36.70;65.30
41471;DHT22;27211;51.220;5.308;2022-08-01T10:58:27;35.60;67.10
41471;DHT22;27211;51.220;5.308;2022-08-01T11:04:05;35.50;66.70
41471;DHT22;27211;51.220;5.308;2022-08-01T11:11:32;35.50;66.50
41471;DHT22;27211;51.220;5.308;2022-08-01T11:16:37;34.80;68.60
41471;DHT22;27211;51.220;5.308;2022-08-01T11:19:04;34.60;69.10
41471;DHT22;27211;51.220;5.308;2022-08-01T11:27:31;32.50;71.90
41471;DHT22;27211;51.220;5.308;2022-08-01T11:32:50;31.40;74.70
41471;DHT22;27211;51.220;5.308;2022-08-01T11:35:17;31.20;75.60
41471;DHT22;27211;51.220;5.308;2022-08-01T11:37:43;31.50;75.60
41471;DHT22;27211;51.220;5.308;2022-08-01T11:40:23;31.70;75.60
41471;DHT22;27211;51.220;5.308;2022-08-01T11:42:50;31.20;76.90
41471;DHT22;27211;51.220;5.308;2022-08-01T11:45:16;30.90;77.80
41471;DHT22;27211;51.220;5.308;2022-08-01T11:47:44;31.20;77.80
41471;DHT22;27211;51.220;5.308;2022-08-01T11:50:30;31.60;76.00
41471;DHT22;27211;51.220;5.308;2022-08-01T11:53:03;32.80;74.40
41471;DHT22;27211;51.220;5.308;2022-08-01T11:55:30;33.70;72.70
41471;DHT22;27211;51.220;5.308;2022-08-01T11:58:07;34.40;72.20
41471;DHT22;27211;51.220;5.308;2022-08-01T12:00:33;34.70;71.90
41471;DHT22;27211;51.220;5.308;2022-08-01T12:03:04;34.20;72.60
41471;DHT22;27211;51.220;5.308;2022-08-01T12:05:32;34.00;72.20
41471;DHT22;27211;51.220;5.308;2022-08-01T12:07:59;33.40;73.00
41471;DHT22;27211;51.220;5.308;2022-08-01T12:10:28;33.70;72.30
41471;DHT22;27211;51.220;5.308;2022-08-01T12:13:00;33.80;74.00
41471;DHT22;27211;51.220;5.308;2022-08-01T12:15:36;33.90;74.80
41471;DHT22;27211;51.220;5.308;2022-08-01T12:18:06;33.30;75.60
41471;DHT22;27211;51.220;5.308;2022-08-01T12:20:39;32.60;76.20
41471;DHT22;27211;51.220;5.308;2022-08-01T12:23:08;31.90;77.40
41471;DHT22;27211;51.220;5.308;2022-08-01T12:25:35;31.70;78.20
41471;DHT22;27211;51.220;5.308;2022-08-01T12:28:03;31.60;78.30
41471;DHT22;27211;51.220;5.308;2022-08-01T12:30:31;32.30;77.20
41471;DHT22;27211;51.220;5.308;2022-08-01T12:33:00;32.40;76.30
41471;DHT22;27211;51.220;5.308;2022-08-01T12:35:28;32.30;76.40
41471;DHT22;27211;51.220;5.308;2022-08-01T12:37:59;32.40;76.30
41471;DHT22;27211;51.220;5.308;2022-08-01T12:40:26;32.20;76.60
41471;DHT22;27211;51.220;5.308;2022-08-01T12:42:54;32.30;75.80
41471;DHT22;27211;51.220;5.308;2022-08-01T12:47:49;31.80;76.70
41471;DHT22;27211;51.220;5.308;2022-08-01T12:50:19;31.90;76.70
41471;DHT22;27211;51.220;5.308;2022-08-01T12:52:45;31.90;76.50
41471;DHT22;27211;51.220;5.308;2022-08-01T12:55:16;31.90;76.60
41471;DHT22;27211;51.220;5.308;2022-08-01T12:57:59;31.90;77.30
41471;DHT22;27211;51.220;5.308;2022-08-01T13:00:29;32.00;76.90
41471;DHT22;27211;51.220;5.308;2022-08-01T13:03:10;32.20;76.40
41471;DHT22;27211;51.220;5.308;2022-08-01T13:05:50;32.30;75.90
41471;DHT22;27211;51.220;5.308;2022-08-01T13:08:22;32.70;74.60
41471;DHT22;27211;51.220;5.308;2022-08-01T13:10:48;32.50;74.90
41471;DHT22;27211;51.220;5.308;2022-08-01T13:13:16;33.00;74.40
41471;DHT22;27211;51.220;5.308;2022-08-01T13:15:43;33.30;73.10
41471;DHT22;27211;51.220;5.308;2022-08-01T13:18:27;33.10;73.80
41471;DHT22;27211;51.220;5.308;2022-08-01T13:23:36;32.90;73.50
41471;DHT22;27211;51.220;5.308;2022-08-01T13:26:03;33.10;73.10
41471;DHT22;27211;51.220;5.308;2022-08-01T13:28:29;33.60;71.90
41471;DHT22;27211;51.220;5.308;2022-08-01T13:31:02;33.60;72.40
41471;DHT22;27211;51.220;5.308;2022-08-01T13:33:45;34.00;71.30
41471;DHT22;27211;51.220;5.308;2022-08-01T13:36:12;33.80;71.10
41471;DHT22;27211;51.220;5.308;2022-08-01T13:38:39;34.00;71.00
41471;DHT22;27211;51.220;5.308;2022-08-01T13:41:24;34.60;70.50
41471;DHT22;27211;51.220;5.308;2022-08-01T13:43:51;34.10;70.10
41471;DHT22;27211;51.220;5.308;2022-08-01T13:46:17;33.90;70.50
41471;DHT22;27211;51.220;5.308;2022-08-01T13:48:43;34.50;69.20
41471;DHT22;27211;51.220;5.308;2022-08-01T13:51:09;33.80;70.00
41471;DHT22;27211;51.220;5.308;2022-08-01T13:53:35;33.60;70.70
41471;DHT22;27211;51.220;5.308;2022-08-01T13:56:01;34.20;70.20
41471;DHT22;27211;51.220;5.308;2022-08-01T13:58:27;34.30;69.30
41471;DHT22;27211;51.220;5.308;2022-08-01T14:00:54;34.20;68.50
41471;DHT22;27211;51.220;5.308;2022-08-01T14:03:21;33.80;68.30
41471;DHT22;27211;51.220;5.308;2022-08-01T14:05:48;34.50;67.80
41471;DHT22;27211;51.220;5.308;2022-08-01T14:08:14;34.10;68.30
41471;DHT22;27211;51.220;5.308;2022-08-01T14:10:40;33.50;70.40
41471;DHT22;27211;51.220;5.308;2022-08-01T14:13:05;32.90;71.10
41471;DHT22;27211;51.220;5.308;2022-08-01T14:15:32;33.70;70.10
41471;DHT22;27211;51.220;5.308;2022-08-01T14:17:58;34.40;68.50
41471;DHT22;27211;51.220;5.308;2022-08-01T14:20:25;35.30;68.00
41471;DHT22;27211;51.220;5.308;2022-08-01T14:22:50;34.80;68.50
41471;DHT22;27211;51.220;5.308;2022-08-01T14:25:16;34.40;69.30
41471;DHT22;27211;51.220;5.308;2022-08-01T14:27:44;34.00;69.60
41471;DHT22;27211;51.220;5.308;2022-08-01T14:30:11;34.00;69.10
41471;DHT22;27211;51.220;5.308;2022-08-01T14:32:36;34.20;68.60
41471;DHT22;27211;51.220;5.308;2022-08-01T14:35:04;34.80;66.70
41471;DHT22;27211;51.220;5.308;2022-08-01T14:37:30;34.80;66.10
41471;DHT22;27211;51.220;5.308;2022-08-01T14:40:00;34.70;65.70
41471;DHT22;27211;51.220;5.308;2022-08-01T14:42:30;34.90;66.70
41471;DHT22;27211;51.220;5.308;2022-08-01T14:44:56;34.80;67.90
41471;DHT22;27211;51.220;5.308;2022-08-01T14:47:22;34.50;66.30
41471;DHT22;27211;51.220;5.308;2022-08-01T14:49:49;33.80;67.60
41471;DHT22;27211;51.220;5.308;2022-08-01T14:52:15;34.10;68.20
41471;DHT22;27211;51.220;5.308;2022-08-01T14:54:41;34.20;68.00
41471;DHT22;27211;51.220;5.308;2022-08-01T14:57:06;33.80;69.10
41471;DHT22;27211;51.220;5.308;2022-08-01T14:59:32;33.30;69.40
41471;DHT22;27211;51.220;5.308;2022-08-01T15:01:58;33.30;69.60
41471;DHT22;27211;51.220;5.308;2022-08-01T15:04:24;33.30;69.30
41471;DHT22;27211;51.220;5.308;2022-08-01T15:06:50;33.00;69.30
41471;DHT22;27211;51.220;5.308;2022-08-01T15:09:15;32.80;68.80
41471;DHT22;27211;51.220;5.308;2022-08-01T15:11:41;33.00;69.00
41471;DHT22;27211;51.220;5.308;2022-08-01T15:14:08;32.50;69.70
41471;DHT22;27211;51.220;5.308;2022-08-01T15:16:52;32.30;70.80
41471;DHT22;27211;51.220;5.308;2022-08-01T15:19:18;31.60;71.80
41471;DHT22;27211;51.220;5.308;2022-08-01T15:21:44;31.40;72.60
41471;DHT22;27211;51.220;5.308;2022-08-01T15:24:09;31.10;72.40
41471;DHT22;27211;51.220;5.308;2022-08-01T15:26:35;31.40;72.70
41471;DHT22;27211;51.220;5.308;2022-08-01T15:29:01;31.20;71.90
41471;DHT22;27211;51.220;5.308;2022-08-01T15:31:27;30.70;71.30
41471;DHT22;27211;51.220;5.308;2022-08-01T15:33:53;30.70;72.20
41471;DHT22;27211;51.220;5.308;2022-08-01T15:36:18;30.50;71.20
41471;DHT22;27211;51.220;5.308;2022-08-01T15:38:45;30.50;71.80
41471;DHT22;27211;51.220;5.308;2022-08-01T15:41:10;30.50;72.00
41471;DHT22;27211;51.220;5.308;2022-08-01T15:43:36;30.40;71.60
41471;DHT22;27211;51.220;5.308;2022-08-01T15:46:04;30.40;72.00
41471;DHT22;27211;51.220;5.308;2022-08-01T15:48:30;30.10;71.90
41471;DHT22;27211;51.220;5.308;2022-08-01T15:50:55;30.20;72.90
41471;DHT22;27211;51.220;5.308;2022-08-01T15:53:22;30.20;72.40
41471;DHT22;27211;51.220;5.308;2022-08-01T15:55:48;29.90;73.40
41471;DHT22;27211;51.220;5.308;2022-08-01T15:58:14;29.90;73.90
41471;DHT22;27211;51.220;5.308;2022-08-01T16:00:40;29.90;73.80
41471;DHT22;27211;51.220;5.308;2022-08-01T16:03:07;30.10;73.60
41471;DHT22;27211;51.220;5.308;2022-08-01T16:05:32;29.80;73.60
41471;DHT22;27211;51.220;5.308;2022-08-01T16:08:00;30.00;73.00
41471;DHT22;27211;51.220;5.308;2022-08-01T16:10:26;29.90;71.50
41471;DHT22;27211;51.220;5.308;2022-08-01T16:12:53;29.60;71.50
41471;DHT22;27211;51.220;5.308;2022-08-01T16:15:19;29.40;72.00
41471;DHT22;27211;51.220;5.308;2022-08-01T16:17:45;29.30;72.20